Schenectady, NY

4:28 PM EDT on May 27, 2015 (GMT -0400)
Albany International | | Change Station
CLOSE
Current Station
Airport
Location: Albany,
Elevation: 292 ft
Nearby Weather Stations

Elev 292 ft 42.75 °N, 73.80 °W | Updated 23 minutes ago

Overcast
Overcast
83 °F
Feels Like 85 °F
N
15
Wind Variable Wind from South
Gusts 29 mph

Today
High -- | Low -- °F
--% Chance of Precip.
Yesterday
High -- | Low -- °F
Precip. -- in
5:22 AM 8:23 PM
Waxing Gibbous, 70% visible
Pressure 30.02 in
Visibility 10.0 miles
Clouds Scattered Clouds 3600 ft
Mostly Cloudy 6500 ft
Mostly Cloudy 18000 ft
Mostly Cloudy 26000 ft
Heat Index 85 °F
Dew Point 67 °F
Humidity 58%
Rainfall 0.00 in
Snow Depth Not available.
UV 3 out of 12
Pollen 6.60 out of 12
Air Quality Not available.
Flu Activity Widespread
SPECI KALB 272005Z 18013G25KT 10SM SCT036CB BKN065 BKN180 BKN260 28/19 A3002 RMK AO2 TSE05 CB NE MOV NE T02830194

More Conditions Fewer Conditions

Pressure 30.02 in
Visibility 10.0 miles
Clouds Scattered Clouds 3600 ft
Mostly Cloudy 6500 ft
Mostly Cloudy 18000 ft
Mostly Cloudy 26000 ft
Heat Index 85 °F
Dew Point 67 °F
Humidity 58%
Rainfall 0.00 in
Snow Depth Not available.
UV 3 out of 12
Pollen 6.60 out of 12
Air Quality Not available.
Flu Activity Widespread
SPECI KALB 272005Z 18013G25KT 10SM SCT036CB BKN065 BKN180 BKN260 28/19 A3002 RMK AO2 TSE05 CB NE MOV NE T02830194

More Conditions Fewer Conditions

10-Day Weather Forecast

Almanac

Astronomy

May. 27, 2015 Rise Set
Actual Time
Civil Twilight
Nautical Twilight
Astronomical Twilight
Moon
Length of Visible Light
Length of Day
Tomorrow will be .
, % of the Moon is Illuminated

Today's Extremes

State Highs State Lows

Community

WunderPhotos

Upload Photos

1,824,778 photos uploaded!

WunderBlogs® & News

Nearby

Air Quality

  Air Quality AQ Index Pollutant
Not available.

Snow Depth

Station Depth Elevation

Earthquake Activity

City Distance Mag. Time & Date
Minimum magnitude displayed is 2.5.

Coastal Water Temperatures

Place Temperature

Stations

Nearby Weather Stations

Station Location Temp. Windchill Dew Point Humidity Wind Precip. Elev Updated Type
                   
Severe Thunderstorm Watch
Statement as of 4:24 PM EDT on May 27, 2015

Severe Thunderstorm Watch 227 remains in effect until 700 PM EDT

NY
. New York counties included are

Albany Columbia Delaware
Dutchess Greene Orange
Otsego Putnam Rensselaer
Rockland Schenectady Schoharie
Sullivan Ulster Washington
Westchester